createdAt,value
2023-03-05T00:02:42.634Z,2.47
2023-03-05T00:05:27.266Z,2.38
2023-03-05T00:08:12.043Z,4.20
2023-03-05T00:11:01.769Z,2.38
2023-03-05T00:13:47.072Z,4.43
2023-03-05T00:16:32.117Z,1.55
2023-03-05T00:19:16.644Z,3.47
2023-03-05T00:22:01.534Z,3.70
2023-03-05T00:24:50.414Z,3.47
2023-03-05T00:27:35.111Z,2.78
2023-03-05T00:30:19.969Z,4.05
2023-03-05T00:33:04.979Z,3.63
2023-03-05T00:35:49.422Z,1.88
2023-03-05T00:41:20.577Z,2.17
2023-03-05T00:44:05.199Z,3.28
2023-03-05T00:46:49.930Z,2.15
2023-03-05T00:49:35.016Z,1.95
2023-03-05T00:52:19.797Z,6.60
2023-03-05T00:55:04.746Z,3.22
2023-03-05T00:57:49.459Z,6.30
2023-03-05T01:00:34.311Z,3.78
2023-03-05T01:03:19.243Z,5.13
2023-03-05T01:06:10.238Z,3.78
2023-03-05T01:11:41.672Z,1.88
2023-03-05T01:14:27.708Z,2.78
2023-03-05T01:17:12.660Z,1.30
2023-03-05T01:19:57.586Z,3.15
2023-03-05T01:22:42.560Z,2.35
2023-03-05T01:25:27.639Z,3.78
2023-03-05T01:30:57.952Z,2.65
2023-03-05T01:33:42.358Z,4.30
2023-03-05T01:36:27.471Z,1.83
2023-03-05T01:39:12.853Z,2.38
2023-03-05T01:41:57.998Z,2.88
2023-03-05T01:45:06.596Z,3.33
2023-03-05T01:47:51.485Z,3.58
2023-03-05T01:50:36.267Z,1.67
2023-03-05T01:53:21.128Z,4.13
2023-03-05T01:56:06.260Z,5.55
2023-03-05T01:58:53.136Z,2.97
2023-03-05T02:01:42.264Z,1.92
2023-03-05T02:04:33.751Z,3.45
2023-03-05T02:07:18.746Z,3.30
2023-03-05T02:10:25.141Z,4.38
2023-03-05T02:13:13.788Z,8.05
2023-03-05T02:16:00.847Z,3.80
2023-03-05T02:18:45.687Z,1.38
2023-03-05T02:21:42.213Z,2.30
2023-03-05T02:24:36.538Z,5.25
2023-03-05T02:27:34.009Z,3.53
2023-03-05T02:30:19.690Z,2.78
2023-03-05T02:33:05.301Z,2.60
2023-03-05T02:35:50.462Z,2.47
2023-03-05T02:38:35.596Z,5.80
2023-03-05T02:41:20.371Z,2.33
2023-03-05T02:44:05.800Z,3.63
2023-03-05T02:49:36.842Z,2.72
2023-03-05T02:55:08.914Z,8.85
2023-03-05T02:57:54.039Z,8.43
2023-03-05T03:05:26.552Z,11.05
2023-03-05T03:08:11.397Z,10.45
2023-03-05T03:10:56.523Z,9.82
2023-03-05T03:13:41.872Z,8.13
2023-03-05T03:16:26.862Z,6.47
2023-03-05T03:19:11.934Z,6.18
2023-03-05T03:21:56.726Z,6.30
2023-03-05T03:24:42.614Z,7.13
2023-03-05T03:27:27.737Z,6.25
2023-03-05T03:30:13.561Z,4.75
2023-03-05T03:32:58.281Z,7.80
2023-03-05T03:35:43.128Z,6.20
2023-03-05T03:38:27.712Z,8.00
2023-03-05T03:41:12.272Z,3.60
2023-03-05T03:43:57.167Z,5.03
2023-03-05T03:46:41.743Z,6.65
2023-03-05T03:49:27.089Z,6.93
2023-03-05T03:52:11.717Z,5.97
2023-03-05T03:55:00.793Z,11.73
2023-03-05T03:57:45.655Z,10.88
2023-03-05T04:00:30.140Z,8.95
2023-03-05T04:03:14.909Z,13.68
2023-03-05T04:05:59.662Z,15.32
2023-03-05T04:08:44.445Z,10.40
2023-03-05T04:11:29.573Z,14.35
2023-03-05T04:14:14.653Z,9.68
2023-03-05T04:16:59.636Z,10.90
2023-03-05T04:19:44.787Z,8.60
2023-03-05T04:22:29.788Z,9.55
2023-03-05T04:25:14.675Z,8.13
2023-03-05T04:27:59.962Z,6.07
2023-03-05T04:30:44.638Z,12.55
2023-03-05T04:33:30.546Z,5.88
2023-03-05T04:36:15.490Z,7.38
2023-03-05T04:39:00.419Z,6.43
2023-03-05T04:41:44.982Z,5.68
2023-03-05T04:44:29.536Z,4.22
2023-03-05T04:47:15.191Z,6.03
2023-03-05T04:50:00.228Z,5.35
2023-03-05T04:52:45.306Z,6.20
2023-03-05T04:55:30.358Z,6.07
2023-03-05T04:58:15.289Z,6.00
2023-03-05T05:01:02.168Z,7.75
2023-03-05T05:03:47.572Z,9.38
2023-03-05T05:06:32.173Z,8.55
2023-03-05T05:09:17.571Z,8.95
2023-03-05T05:12:02.213Z,6.13
2023-03-05T05:14:47.128Z,6.43
2023-03-05T05:17:32.449Z,7.55
2023-03-05T05:20:17.234Z,7.55
2023-03-05T05:23:01.989Z,7.25
2023-03-05T05:25:55.950Z,8.95
2023-03-05T05:28:43.149Z,8.25
2023-03-05T05:31:27.940Z,11.73
2023-03-05T05:34:12.481Z,31.80
2023-03-05T05:36:57.486Z,18.95
2023-03-05T05:39:42.495Z,11.02
2023-03-05T05:42:28.818Z,9.18
2023-03-05T05:45:13.945Z,11.35
2023-03-05T05:47:58.403Z,10.82
2023-03-05T05:50:43.543Z,11.80
2023-03-05T05:53:28.106Z,11.15
2023-03-05T05:56:14.102Z,8.43
2023-03-05T05:58:59.227Z,10.88
2023-03-05T06:01:44.183Z,6.88
2023-03-05T06:04:29.605Z,13.40
2023-03-05T06:07:13.945Z,12.90
2023-03-05T06:09:58.973Z,10.68
2023-03-05T06:12:44.330Z,11.18
2023-03-05T06:15:29.359Z,12.95
2023-03-05T06:18:14.157Z,14.20
2023-03-05T06:21:05.150Z,10.30
2023-03-05T06:23:50.721Z,9.00
2023-03-05T06:26:35.444Z,10.93
2023-03-05T06:29:20.348Z,12.60
2023-03-05T06:32:05.275Z,8.63
2023-03-05T06:34:50.110Z,9.30
2023-03-05T06:37:34.850Z,14.27
2023-03-05T06:40:19.899Z,12.73
2023-03-05T06:45:49.439Z,10.90
2023-03-05T06:51:25.684Z,11.30
2023-03-05T06:54:13.705Z,6.80
2023-03-05T06:56:58.659Z,7.00
2023-03-05T06:59:43.832Z,8.13
2023-03-05T07:02:28.708Z,8.05
2023-03-05T07:05:13.612Z,13.40
2023-03-05T07:07:58.239Z,9.13
2023-03-05T07:10:43.757Z,9.13
2023-03-05T07:13:29.035Z,9.48
2023-03-05T07:16:20.200Z,14.20
2023-03-05T07:19:06.889Z,11.32
2023-03-05T07:21:51.938Z,11.38
2023-03-05T07:24:37.018Z,9.13
2023-03-05T07:27:24.824Z,8.70
2023-03-05T07:30:10.310Z,9.38
2023-03-05T07:32:55.052Z,9.18
2023-03-05T07:35:40.828Z,7.97
2023-03-05T07:38:25.941Z,11.32
2023-03-05T07:43:57.604Z,9.52
2023-03-05T07:46:43.265Z,8.93
2023-03-05T07:49:28.213Z,15.45
2023-03-05T07:52:13.070Z,11.40
2023-03-05T07:54:58.216Z,19.38
2023-03-05T07:57:42.825Z,20.33
2023-03-05T08:00:27.897Z,18.38
2023-03-05T08:03:12.390Z,10.50
2023-03-05T08:05:57.241Z,6.28
2023-03-05T08:08:42.068Z,8.98
2023-03-05T08:11:28.142Z,9.02
2023-03-05T08:14:12.901Z,7.57
2023-03-05T08:16:57.654Z,7.90
2023-03-05T08:19:42.345Z,5.70
2023-03-05T08:22:26.894Z,8.23
2023-03-05T08:25:12.646Z,9.00
2023-03-05T08:27:57.587Z,8.85
2023-03-05T08:33:27.027Z,11.77
2023-03-05T08:36:12.577Z,13.93
2023-03-05T08:38:59.003Z,10.07
2023-03-05T08:41:43.965Z,6.95
2023-03-05T08:44:29.210Z,8.60
2023-03-05T08:49:58.719Z,7.60
2023-03-05T08:52:44.005Z,8.05
2023-03-05T08:55:28.610Z,8.20
2023-03-05T08:58:14.096Z,7.18
2023-03-05T09:00:58.788Z,9.68
2023-03-05T09:06:29.012Z,8.02
2023-03-05T09:09:13.635Z,12.68
2023-03-05T09:11:59.517Z,9.30
2023-03-05T09:14:44.244Z,6.88
2023-03-05T09:17:29.298Z,7.03
2023-03-05T09:23:01.616Z,7.05
2023-03-05T09:25:46.615Z,11.25
2023-03-05T09:31:15.923Z,7.60
2023-03-05T09:36:45.290Z,10.02
2023-03-05T09:39:29.857Z,6.85
2023-03-05T09:42:36.102Z,9.30
2023-03-05T09:45:38.932Z,8.48
2023-03-05T09:48:46.047Z,8.23
2023-03-05T09:51:35.876Z,8.18
2023-03-05T09:54:40.689Z,9.15
2023-03-05T09:57:38.860Z,7.65
2023-03-05T10:00:40.913Z,6.20
2023-03-05T10:03:31.625Z,7.68
2023-03-05T10:06:26.029Z,9.80
2023-03-05T10:09:10.710Z,7.80
2023-03-05T10:11:55.401Z,9.73
2023-03-05T10:14:41.267Z,9.57
2023-03-05T10:17:38.262Z,7.50
2023-03-05T10:20:48.477Z,6.57
2023-03-05T10:24:03.216Z,9.27
2023-03-05T10:27:20.764Z,6.85
2023-03-05T10:30:37.823Z,6.10
2023-03-05T10:33:35.564Z,7.82
2023-03-05T10:36:46.149Z,8.63
2023-03-05T10:40:09.350Z,5.85
2023-03-05T10:42:53.886Z,5.65
2023-03-05T10:45:51.540Z,11.70
2023-03-05T10:48:38.441Z,4.90
2023-03-05T10:51:53.980Z,5.43
2023-03-05T10:54:42.082Z,5.90
2023-03-05T10:57:31.102Z,6.15
2023-03-05T11:00:25.380Z,5.45
2023-03-05T11:03:10.160Z,6.75
2023-03-05T11:06:00.982Z,6.20
2023-03-05T11:08:46.323Z,6.63
2023-03-05T11:11:32.571Z,8.98
2023-03-05T11:14:30.455Z,5.82
2023-03-05T11:17:31.746Z,4.63
2023-03-05T11:20:28.534Z,5.47
2023-03-05T11:23:13.516Z,5.32
2023-03-05T11:26:04.514Z,6.28
2023-03-05T11:28:52.515Z,5.75
2023-03-05T11:31:37.673Z,5.80
2023-03-05T11:34:29.573Z,5.80
2023-03-05T11:37:30.080Z,9.25
2023-03-05T11:40:22.289Z,6.00
2023-03-05T11:43:16.349Z,6.78
2023-03-05T11:46:02.688Z,3.85
2023-03-05T11:48:47.858Z,6.57
2023-03-05T11:51:42.936Z,6.40
2023-03-05T11:54:38.470Z,6.38
2023-03-05T11:57:25.347Z,5.38
2023-03-05T12:00:16.982Z,7.05
2023-03-05T12:03:13.677Z,5.15
2023-03-05T12:06:08.497Z,5.32
2023-03-05T12:08:59.756Z,7.47
2023-03-05T12:11:46.623Z,4.22
2023-03-05T12:15:00.691Z,7.93
2023-03-05T12:17:45.250Z,4.57
2023-03-05T12:20:46.628Z,5.75
2023-03-05T12:23:45.575Z,3.05
2023-03-05T12:26:52.022Z,4.43
2023-03-05T12:29:42.912Z,6.32
2023-03-05T12:32:34.592Z,3.72
2023-03-05T12:35:22.980Z,6.05
2023-03-05T12:38:28.561Z,4.55
2023-03-05T12:41:22.985Z,5.28
2023-03-05T12:44:08.039Z,6.82
2023-03-05T12:47:10.966Z,5.10
2023-03-05T12:49:56.635Z,7.05
2023-03-05T12:52:45.244Z,8.13
2023-03-05T12:56:24.141Z,8.95
2023-03-05T12:59:09.726Z,3.75
2023-03-05T13:01:58.286Z,6.60
2023-03-05T13:04:45.435Z,4.35
2023-03-05T13:07:30.540Z,8.50
2023-03-05T13:10:23.889Z,6.22
2023-03-05T13:13:14.700Z,3.88
2023-03-05T13:16:00.665Z,11.27
2023-03-05T13:18:48.312Z,7.10
2023-03-05T13:21:34.676Z,5.43
2023-03-05T13:24:19.783Z,4.07
2023-03-05T13:27:20.017Z,8.15
2023-03-05T13:30:05.998Z,3.45
2023-03-05T13:32:54.894Z,6.32
2023-03-05T13:35:45.025Z,5.28
2023-03-05T13:38:40.945Z,3.92
2023-03-05T13:41:27.483Z,5.47
2023-03-05T13:44:21.288Z,4.72
2023-03-05T13:47:18.992Z,7.35
2023-03-05T13:50:09.106Z,7.10
2023-03-05T13:52:54.216Z,11.40
2023-03-05T13:55:39.224Z,11.95
2023-03-05T13:58:44.051Z,7.30
2023-03-05T14:01:43.678Z,6.47
2023-03-05T14:04:42.428Z,5.68
2023-03-05T14:07:41.959Z,5.85
2023-03-05T14:10:34.001Z,5.50
2023-03-05T14:13:23.222Z,5.47
2023-03-05T14:16:13.608Z,4.43
2023-03-05T14:19:00.991Z,3.80
2023-03-05T14:21:50.208Z,6.22
2023-03-05T14:24:36.430Z,6.80
2023-03-05T14:27:21.825Z,7.03
2023-03-05T14:30:16.630Z,5.97
2023-03-05T14:33:02.430Z,4.68
2023-03-05T14:35:50.967Z,6.55
2023-03-05T14:38:40.001Z,9.52
2023-03-05T14:41:39.372Z,6.95
2023-03-05T14:44:25.700Z,5.93
2023-03-05T14:47:10.716Z,9.27
2023-03-05T14:52:40.182Z,8.73
2023-03-05T14:55:29.661Z,10.43
2023-03-05T14:58:17.762Z,11.85
2023-03-05T15:01:02.475Z,6.28
2023-03-05T15:06:38.783Z,9.10
2023-03-05T15:09:23.545Z,8.40
2023-03-05T15:12:11.549Z,9.70
2023-03-05T15:14:56.668Z,8.93
2023-03-05T15:17:46.608Z,9.30
2023-03-05T15:20:32.446Z,8.73
2023-03-05T15:23:17.725Z,10.02
2023-03-05T15:28:50.634Z,8.55
2023-03-05T15:31:38.124Z,7.15
2023-03-05T15:34:23.161Z,12.52
2023-03-05T15:37:08.778Z,8.93
2023-03-05T15:39:53.535Z,11.00
2023-03-05T15:45:23.852Z,11.18
2023-03-05T15:48:09.605Z,9.55
2023-03-05T15:50:54.616Z,6.90
2023-03-05T15:53:39.086Z,8.90
2023-03-05T15:56:23.798Z,9.48
2023-03-05T15:59:09.570Z,8.85
2023-03-05T16:01:54.145Z,8.00
2023-03-05T16:04:39.629Z,13.18
2023-03-05T16:07:25.137Z,10.63
2023-03-05T16:10:13.219Z,15.35
2023-03-05T16:13:14.011Z,13.10
2023-03-05T16:15:58.897Z,13.02
2023-03-05T16:18:47.168Z,12.82
2023-03-05T16:21:31.943Z,12.90
2023-03-05T16:24:16.977Z,15.68
2023-03-05T16:27:01.556Z,14.90
2023-03-05T16:32:32.051Z,17.13
2023-03-05T16:35:17.006Z,17.73
2023-03-05T16:38:02.465Z,12.98
2023-03-05T16:43:56.045Z,16.80
2023-03-05T16:46:42.709Z,17.65
2023-03-05T16:49:28.034Z,25.30
2023-03-05T16:55:05.294Z,19.50
2023-03-05T16:57:50.062Z,19.13
2023-03-05T17:00:35.400Z,17.92
2023-03-05T17:03:20.018Z,23.40
2023-03-05T17:08:59.474Z,17.27
2023-03-05T17:11:44.482Z,30.20
2023-03-05T17:17:14.398Z,23.00
2023-03-05T17:19:59.384Z,21.35
2023-03-05T17:22:44.424Z,20.90
2023-03-05T17:25:30.105Z,22.77
2023-03-05T17:28:15.113Z,21.67
2023-03-05T17:31:00.701Z,19.00
2023-03-05T17:33:45.540Z,19.50
2023-03-05T17:36:31.750Z,19.30
2023-03-05T17:39:18.385Z,21.10
2023-03-05T17:42:03.128Z,24.52
2023-03-05T17:47:34.926Z,18.73
2023-03-05T17:50:19.621Z,18.52
2023-03-05T17:53:04.931Z,15.35
2023-03-05T17:55:49.817Z,12.38
2023-03-05T18:01:25.630Z,12.98
2023-03-05T18:04:10.940Z,12.48
2023-03-05T18:06:55.640Z,15.02
2023-03-05T18:09:40.189Z,16.73
2023-03-05T18:12:24.714Z,19.00
2023-03-05T18:15:12.591Z,19.02
2023-03-05T18:17:58.317Z,20.90
2023-03-05T18:20:43.795Z,21.65
2023-03-05T18:23:28.413Z,23.25
2023-03-05T18:26:13.299Z,18.70
2023-03-05T18:28:57.660Z,19.25
2023-03-05T18:31:42.216Z,16.20
2023-03-05T18:34:27.460Z,17.10
2023-03-05T18:37:12.113Z,15.15
2023-03-05T18:42:42.238Z,13.75
2023-03-05T18:48:12.806Z,11.57
2023-03-05T18:50:57.891Z,11.65
2023-03-05T18:56:27.282Z,11.35
2023-03-05T19:01:56.731Z,11.18
2023-03-05T19:04:42.003Z,13.18
2023-03-05T19:07:26.809Z,11.52
2023-03-05T19:10:13.701Z,11.45
2023-03-05T19:13:42.794Z,8.48
2023-03-05T19:16:33.054Z,9.20
2023-03-05T19:19:21.614Z,11.75
2023-03-05T19:22:06.737Z,6.35
2023-03-05T19:24:53.379Z,9.65
2023-03-05T19:27:39.035Z,9.15
2023-03-05T19:30:24.197Z,6.93
2023-03-05T19:33:08.868Z,10.40
2023-03-05T19:38:39.000Z,8.70
2023-03-05T19:41:25.585Z,9.15
2023-03-05T19:44:12.214Z,11.52
2023-03-05T19:46:57.133Z,12.25
2023-03-05T19:49:41.496Z,10.00
2023-03-05T19:52:27.207Z,15.02
2023-03-05T19:55:12.468Z,8.60
2023-03-05T19:57:57.013Z,10.55
2023-03-05T20:00:41.602Z,10.20
2023-03-05T20:03:26.342Z,10.40
2023-03-05T20:06:11.004Z,10.82
2023-03-05T20:08:57.303Z,13.60
2023-03-05T20:11:41.961Z,15.90
2023-03-05T20:14:27.024Z,9.43
2023-03-05T20:17:11.613Z,12.77
2023-03-05T20:19:58.332Z,13.20
2023-03-05T20:22:45.029Z,13.82
2023-03-05T20:25:29.993Z,10.85
2023-03-05T20:28:14.952Z,8.52
2023-03-05T20:33:45.146Z,8.18
2023-03-05T20:36:29.903Z,10.73
2023-03-05T20:42:00.203Z,8.70
2023-03-05T20:47:45.546Z,11.07
2023-03-05T20:50:30.151Z,11.18
2023-03-05T20:56:00.571Z,10.23
2023-03-05T20:58:45.637Z,11.35
2023-03-05T21:04:15.805Z,8.15
2023-03-05T21:07:00.587Z,6.53
2023-03-05T21:09:45.687Z,9.20
2023-03-05T21:12:33.454Z,8.35
2023-03-05T21:15:21.033Z,9.77
2023-03-05T21:18:05.963Z,11.95
2023-03-05T21:20:50.705Z,10.63
2023-03-05T21:26:20.613Z,12.02
2023-03-05T21:29:05.469Z,10.48
2023-03-05T21:31:50.335Z,11.82
2023-03-05T21:37:19.802Z,9.07
2023-03-05T21:40:05.120Z,6.63
2023-03-05T21:42:49.971Z,8.00
2023-03-05T21:48:20.489Z,9.40
2023-03-05T21:51:38.002Z,8.15
2023-03-05T21:54:28.021Z,8.80
2023-03-05T21:57:13.494Z,9.55
2023-03-05T22:02:43.446Z,10.50
2023-03-05T22:08:12.836Z,6.28
2023-03-05T22:10:57.339Z,5.13
2023-03-05T22:13:42.292Z,9.77
2023-03-05T22:16:27.583Z,5.80
2023-03-05T22:19:12.122Z,6.30
2023-03-05T22:21:56.973Z,8.07
2023-03-05T22:27:26.185Z,7.30
2023-03-05T22:30:12.498Z,9.52
2023-03-05T22:32:58.153Z,10.10
2023-03-05T22:35:43.556Z,9.25
2023-03-05T22:38:28.807Z,8.82
2023-03-05T22:41:16.037Z,7.30
2023-03-05T22:44:01.053Z,10.55
2023-03-05T22:46:45.962Z,11.13
2023-03-05T22:49:31.582Z,10.20
2023-03-05T22:52:16.763Z,8.38
2023-03-05T22:55:02.768Z,10.38
2023-03-05T22:57:47.898Z,11.38
2023-03-05T23:00:32.468Z,11.48
2023-03-05T23:03:17.140Z,9.73
2023-03-05T23:06:02.175Z,8.55
2023-03-05T23:08:47.100Z,9.52
2023-03-05T23:14:16.582Z,14.07
2023-03-05T23:19:46.271Z,10.18
2023-03-05T23:25:15.974Z,7.90
2023-03-05T23:28:03.112Z,10.15
2023-03-05T23:30:48.206Z,8.73
2023-03-05T23:33:33.156Z,10.73
2023-03-05T23:39:04.055Z,10.38
2023-03-05T23:41:48.640Z,9.25
2023-03-05T23:47:18.169Z,10.55
2023-03-05T23:50:05.496Z,13.80
2023-03-05T23:52:50.875Z,13.25
2023-03-05T23:55:40.560Z,9.70
2023-03-05T23:58:25.871Z,12.18
